Santiago García

Chief Scout - Real Sociedad
3 Dec 2028
Sunday
Process

Personality

Adaptability (14) Ambition (16) Controversy (11) Loyalty (16) Pressure (18) Professionalism (12) Sportsmanship (12) Temperament (19)

Profile

Coaching Style Democratic
License National B
Determination 10
Man Management 12
Motivating 6
Discipline 15
Job Satisfaction
100%
Fatigue
0%
Role Chief Scout
Wage 60.1K p/w
Contract 14.03.2030

Performance

Behaviour Good
Training Effectiveness
59%
Player Development
40%
Injury Prevention
60%
Tactical Implementation
75%

Recent Events

Recommended a transfer target now
Recommended a transfer target now
Attended a recruitment meeting now
Attended a recruitment meeting now
Assessed a player now
Assessed a player now
Assessed a player now
Observed a match now

Currently Monitoring

377
Player Club Status Ability Confidence Watched Last Observed Latest Vote
Lisandro Piñero Banfield Active 127 / 135 40% 18 02.12.2028 -
Babis Kostoulas Oxford United Active 150 / 158 40% 14 01.12.2028 -
Harry Gray Harrogate Town Active 136 / 137 40% 3 01.12.2028 -
Oumar Camara Vitoria Guimaraes Active 141 / 138 40% 2 01.12.2028 -
Geovany Quenda Watford Active 152 / 153 40% 4 30.11.2028 -
Lucca São Paulo Active 123 / 129 40% 6 30.11.2028 -
Peyton Miller New England Revolution Active 117 / 115 40% 4 30.11.2028 -
Ryan McAidoo Oldham Athletic Active 132 / 137 40% 8 29.11.2028 -
Alex Verón Vélez Active 120 / 121 40% 7 29.11.2028 -
Sebastian Rodriguez Houston Dynamo Active 116 / 126 40% 6 29.11.2028 -
Sam Proctor Salford City Active 126 / 135 40% 3 27.11.2028 -
Jack Porter Port Vale Active 123 / 131 40% 2 27.11.2028 -
Tahiel Peralta Racing Club Active 110 / 115 40% 3 27.11.2028 -
Fabián Cristaldo Defensor Sporting Active 94 / 107 40% 1 27.11.2028 -
Mateus Mané Burnley Active 151 / 149 40% 16 25.11.2028 -
Matias Siltanen Malmo FF Active 124 / 126 40% 3 25.11.2028 -
Dylan Moody Cheltenham Town Active 126 / 132 40% 3 25.11.2028 -
Miguel Gouveia Girona Active 111 / 130 40% 1 25.11.2028 -
Aarón Ochoa Málaga Active 131 / 123 40% 4 23.11.2028 -
Ryan Kavuma-McQueen Accrington Stanley Active 123 / 133 40% 13 21.11.2028 -
André Miranda Porto Active 119 / 130 40% 4 21.11.2028 -
Celías Ingenthron Platense Active 113 / 128 40% 3 21.11.2028 -
Ibrahim Fullah Charlton Athletic Active 125 / 126 40% 8 20.11.2028 -
Matías Arias Vélez Active 118 / 124 40% 10 20.11.2028 -
Máximo Menseguez Ternana Active 101 / 106 40% 1 20.11.2028 -
Ibrahim Mbaye Queens Park Rangers Active 147 / 148 40% 6 19.11.2028 -
Nicolás Azambuja Nottingham Forest Active 115 / 129 40% 2 19.11.2028 -
Facundo Jainikoski Independiente Active 118 / 122 40% 4 19.11.2028 -
Christos Mouzakitis Hull City Active 138 / 144 40% 3 16.11.2028 -
Ayyoub Bouaddi Stoke City Active 154 / 164 40% 3 15.11.2028 -
Álvaro Montoro Botafogo Active 134 / 134 40% 3 12.11.2028 -
Agustín Cortez Vélez Active 110 / 118 40% 4 12.11.2028 -
Benicio Romero Inter Active 107 / 107 40% 1 12.11.2028 -
Robert Cook Accrington Stanley Active 121 / 127 40% 1 12.11.2028 -
Sean Steur Rotherham United Active 135 / 135 40% 1 12.11.2028 -
Kevin Filling AIK Active 116 / 124 40% 3 03.11.2028 -
Luis Otávio Orlando City Active 110 / 119 40% 3 02.11.2028 -
Francisco Valdés Universidad Catolica Active 101 / 107 40% 1 02.11.2028 -
Leonardo Sosa Rosario Central Active 103 / 105 40% 1 01.11.2028 -
Agustín Cañete Banfield Active 107 / 112 40% 1 01.11.2028 -
Nicholas Michalski Northampton Town Active 115 / 120 40% 1 31.10.2028 -
Agustín Albrini Independiente Rivadavia Active 98 / 97 40% 1 27.10.2028 -
Galo Avendaño Aldosivi Active 97 / 106 40% 1 27.10.2028 -
Manuel Pereyra Tigre Active 102 / 101 40% 1 27.10.2028 -
Dieguinho Grêmio Active 115 / 119 40% 1 24.10.2028 -
Fabricio Chacón Central Córdoba SdE Active 91 / 95 40% 1 24.10.2028 -
Rio Ngumoha Plymouth Argyle Active 143 / 154 40% 3 23.10.2028 -
Estêvão Portsmouth Active 150 / 157 40% 2 23.10.2028 -
Franco Mastantuono Córdoba Active 141 / 146 40% 2 23.10.2028 -
Trey Nyoni Rotherham United Active 145 / 155 40% 2 22.10.2028 -
Ulíses López Barracas Central Active 102 / 108 40% 1 22.10.2028 -
Dylan Martínez River Plate Active 100 / 114 40% 1 21.10.2028 -
Nicolás Monges Sarmiento Active 92 / 103 40% 1 21.10.2028 -
Sayfiddin Sodikov Andijon Active 89 / 108 40% 1 18.10.2028 -
Mikey Moore Stockport County Active 143 / 146 40% 1 17.10.2028 -
Felipe Pujol Vélez Active 108 / 123 40% 1 17.10.2028 -
Haine Eames Brisbane Roar Active 116 / 124 40% 5 11.10.2028 -
Agustín Medina Lanús Active 122 / 122 40% 1 11.10.2028 -
Mateo Aguiar Tigre Active 112 / 123 40% 1 08.10.2028 -
Saúl Durán Gornik Zabrze Active 107 / 114 40% 1 08.10.2028 -
Lisandro Musso Central Córdoba SdE Active 99 / 106 40% 1 08.10.2028 -
Kiyani Zeggen AZ Active 141 / 150 40% 1 08.10.2028 -
Felipe Pontoni Talleres Active 93 / 99 40% 2 06.10.2028 -
Marc Bernal Sevilla Active 145 / 157 40% 6 06.10.2028 -
Lionel Madriaga Belgrano Active 97 / 105 40% 1 06.10.2028 -
Yan Diomandé Oviedo Active 158 / 157 40% 6 04.10.2028 -
Jano Aguiar Colón Active 99 / 103 40% 1 04.10.2028 -
Santos Torrealba Metropolitanos Active 100 / 101 40% 1 04.10.2028 -
Arthur De Lima Central Coast Mariners Active 120 / 125 40% 4 03.10.2028 -
Gabriel Sloane-Rodrigues Team Wellington Active 128 / 116 40% 1 03.10.2028 -
Lionel Jara Central Córdoba SdE Active 96 / 98 40% 1 02.10.2028 -
Nicolás Nagel Colón Active 91 / 101 40% 1 29.09.2028 -
Markus Wæhler Lillestrom Active 115 / 107 40% 1 29.09.2028 -
Ruben Ramos LA Galaxy Active 104 / 108 40% 2 25.09.2028 -
Santiago Segovia Rosario Central Active 115 / 117 40% 1 24.09.2028 -
Leandro Olima Atlético Tucumán Active 102 / 116 40% 1 21.09.2028 -
Aarón Martín Al-Qadisiyah Active 123 / 117 40% 1 17.09.2028 -
Will Dobson Newcastle Jets Active 126 / 131 40% 1 16.09.2028 -
Facundo Balatti Penarol Active 105 / 113 40% 1 13.09.2028 -
Gustavo Lozano Metropolitanos Active 96 / 108 40% 1 13.09.2028 -
Leonel Flores Boca Juniors Active 105 / 110 40% 1 12.09.2028 -
Alejandro Almaraz NK Celje Active 115 / 134 40% 1 12.09.2028 -
Christ Wawa Gefle Active 104 / 98 40% 1 10.09.2028 -
Luka Andrade Montevideo City Torque Active 102 / 102 40% 8 09.09.2028 -
Alan Torterolo Defensor Sporting Active 97 / 101 40% 2 08.09.2028 -
Julian Hall Real Salt Lake Active 106 / 112 40% 5 08.09.2028 -
Nicolás Barros Schelotto Gimnasia La Plata Active 116 / 128 40% 1 08.09.2028 -
Nadir Sánchez Central Córdoba SdE Active 97 / 105 40% 1 05.09.2028 -
Valentino Huertas Morón Active 107 / 113 40% 1 05.09.2028 -
Roberto Medina La Equidad Active 91 / 107 40% 1 04.09.2028 -
Joel Ezra Enyimba Active 98 / 106 40% 1 04.09.2028 -
Gideon Manaseh Ikorodu City Active 100 / 104 40% 1 29.08.2028 -
Emiliano Zambrano Cortulua Active 97 / 105 40% 1 29.08.2028 -
Luis Yanes Real Cartagena Active 89 / 95 40% 2 27.08.2028 -
Mateo Lizondo Colón Active 92 / 102 40% 1 23.08.2028 -
Kauã Moraes Flamengo Active 127 / 137 40% 3 22.08.2028 -
Diego Vargas Universidad de Concepcion Active 90 / 103 40% 1 22.08.2028 -
Thijs Kraaijeveld USM Alger Active 124 / 127 40% 1 21.08.2028 -
Lennart Karl TSG Hoffenheim Active 146 / 146 40% 1 21.08.2028 -
Pablo Lago Juventud Active 99 / 114 40% 1 21.08.2028 -
Jorge Salinas Racing Santander Lost 131 / 148 40% 5 14.08.2028 -
Ishmael Addo Heart of Lions Active 97 / 98 40% 1 14.08.2028 -
Agustín Nogueira Barracas Central Active 101 / 106 40% 1 10.07.2028 -
Matías Vilalta Giana Erminio Active 102 / 105 40% 1 10.07.2028 -
Gaspar Gijón Report Ready 142 / 143 76% 1 03.07.2028 Approve
Koke Eibar Lost 137 / 134 76% 1 26.06.2028 -
Luca Meirelles Kudrivka Negotiating 127 / 137 40% 15 19.06.2028 -
Ryan Oné Sheffield United Active 120 / 125 40% 1 19.06.2028 -
Luca Williams-Barnett Walsall Negotiating 122 / 128 40% 26 03.06.2028 -
Ben Broggio Mansfield Town Active 106 / 110 40% 4 03.06.2028 -
Curro Burgos Active 140 / 128 76% 1 03.06.2028 Approve
Igor Tyjon Barrow AFC Active 119 / 127 40% 6 02.06.2028 -
Endrick Boca Juniors Active 159 / 165 40% 5 02.06.2028 -
Manu Fuster Las Palmas Active 138 / 137 76% 1 02.06.2028 Approve
Lucas Høgsberg RC Strasbourg Active 147 / 149 40% 3 01.06.2028 -
Josh Nichols Oldham Athletic Active 124 / 124 40% 4 01.06.2028 -
Honest Ahanor Atalanta Active 135 / 143 40% 9 31.05.2028 -
Tobías Ramírez River Plate Active 125 / 126 40% 1 31.05.2028 -
Siyabonga Mabena Bidvest Wits Active 131 / 134 40% 11 29.05.2028 -
Edison Gruezo Guadalajara Active 105 / 109 40% 3 25.05.2028 -
Shea Lacey Crystal Palace Active 131 / 136 40% 5 25.05.2028 -
Eli Junior Kroupi Bournemouth Active 150 / 156 40% 12 22.05.2028 -
Kerim Alajbegović Modena Active 134 / 140 40% 5 22.05.2028 -
Ryunosuke Sato Eibar Active 137 / 140 40% 11 19.05.2028 -
Fletcher Boyd Accrington Stanley Active 98 / 107 40% 1 12.05.2028 -
Gabe Forsyth Colchester United Active 112 / 118 40% 2 10.05.2028 -
Oscar Schwartau Norwich City Active 129 / 135 40% 3 08.05.2028 -
Jan Virgili Club Brugge Active 142 / 145 40% 6 07.05.2028 -
Giovanni Cantizano Fulham Active 117 / 132 40% 3 07.05.2028 -
Rémi Himbert AC Ajaccio Active 121 / 129 40% 10 04.05.2028 -
Gabriel Mec Feirense Active 131 / 127 40% 4 04.05.2028 -
Leo Pecover Swindon Town Active 100 / 102 40% 1 30.04.2028 -
Oskar Pietuszewski Estrela da Amadora Active 130 / 141 40% 2 29.04.2028 -
Jake Evans Crewe Alexandra Active 111 / 119 40% 3 27.04.2028 -
Amin Nabizada Exeter City Active 113 / 123 40% 5 27.04.2028 -
Romelle Donovan Brentford Active 126 / 132 40% 1 26.04.2028 -
Senny Mayulu Paris Saint-Germain Active 152 / 155 40% 3 25.04.2028 -
Alphadjo Cissé Lecce Active 135 / 139 40% 1 22.04.2028 -
Julien Duranville Olympique Lyonnais Active 143 / 136 40% 4 20.04.2028 -
Omar Khedr Gillingham Active 118 / 115 40% 1 17.04.2028 -
Tyler Fletcher Rotherham United Active 110 / 116 40% 4 13.04.2028 -
Josh Acheampong Everton Active 138 / 151 40% 2 13.04.2028 -
Sindre Walle Egeli Udinese Active 134 / 147 40% 8 22.03.2028 -
Nana Nuhu WAFA Active 97 / 91 40% 1 09.03.2028 -
Henrique Carmo Sochi Active 123 / 133 40% 3 08.03.2028 -
Archie Gray Southampton Active 151 / 149 40% 3 26.02.2028 -
William Gomes Porto Active 146 / 148 40% 2 20.02.2028 -
Gabriel Lopes San Marcos de Arica Active 102 / 99 40% 1 10.02.2028 -
Mateo Peralta Danubio Active 118 / 119 40% 1 07.02.2028 -
Francisco Triver River Plate Active 90 / 92 40% 1 07.02.2028 -
Ayden Heaven Portsmouth Active 149 / 149 40% 1 26.01.2028 -
Xavi Simons Tottenham Active 167 / 163 40% 8 10.01.2028 -
Samuel Edozie Southampton Active 132 / 134 40% 1 10.01.2028 -
Victor Hernandez Santa Fe Active 116 / 119 40% 3 02.01.2028 -
Nazareno Roselli Defensa y Justicia Active 108 / 123 40% 1 02.01.2028 -
Stanis Idumbo AC Ajaccio Active 138 / 145 40% 1 31.12.2027 -
Tiziano Perrotta Mirandés Active 100 / 115 40% 2 27.12.2027 -
Noam Obougou Jacquet Le Havre AC Active 113 / 127 40% 2 27.12.2027 -
Rafael Moreno Atletico Venezuela Active 112 / 115 40% 16 25.12.2027 -
Martin Sherif Everton Active 111 / 111 40% 3 23.12.2027 -
Jayden Danns Bradford City Active 135 / 138 40% 6 21.12.2027 -
Agustín Ruberto River Plate Active 120 / 120 40% 3 20.12.2027 -
Ousseynou Seck Randers Active 121 / 131 40% 2 16.12.2027 -
Dilan Godoy Beitar Jerusalem Active 110 / 128 40% 3 14.12.2027 -
David Fernández O'Higgins Active 109 / 115 40% 5 11.12.2027 -
Kevin Angulo America de Cali Active 97 / 111 40% 4 10.12.2027 -
Diego Ramirez Tigres Active 84 / 94 40% 1 08.12.2027 -
Luighi Palmeiras Active 107 / 112 40% 9 07.12.2027 -
Kabiru Abdullahi Barau Active 88 / 88 40% 1 07.12.2027 -
Daniel Johan Skaarud Sandefjord Active 96 / 101 40% 3 29.11.2027 -
Mamadou Doumbia Rotherham United Active 131 / 128 40% 2 28.11.2027 -
Dániel Pintér Inter Miami CF Active 91 / 108 40% 1 24.11.2027 -
Rayan Elloumi Vancouver Whitecaps Active 92 / 93 40% 1 11.11.2027 -
Timofey Simanenka Gomel Active 96 / 105 40% 1 03.11.2027 -
Amaury Morales Leon Active 122 / 128 40% 1 02.11.2027 -
Bruno Fernández Independiente Active 84 / 95 40% 1 25.10.2027 -
Abubakar Garba Nasarawa United Active 99 / 99 40% 1 22.10.2027 -
Miloš Luković RC Strasbourg Active 123 / 129 40% 3 21.10.2027 -
Felix Mosquera Deportes Quindio Active 92 / 90 40% 1 20.10.2027 -
Eduardo Lozano Botafogo Active 142 / 143 40% 1 20.10.2027 -
Chimobi Igwilo Rangers International Active 91 / 91 40% 1 05.10.2027 -
Lucciano Reinoso Caracas Active 91 / 99 40% 1 26.09.2027 -
Matías Cantero All Boys Active 92 / 95 40% 1 22.09.2027 -
Miguel Marulanda Envigado Active 85 / 92 40% 1 22.09.2027 -
Omar Bautista Gerez Central Córdoba SdE Active 83 / 95 40% 1 21.09.2027 -
Dylan Cabral Arsenal Active 102 / 98 40% 1 20.09.2027 -
Tiago Pucciarelli IF Elfsborg Active 101 / 102 40% 1 17.09.2027 -
Chineme Chinonso Ikorodu City Active 96 / 94 40% 2 16.09.2027 -
Stanley Amon Bayelsa United Active 91 / 94 40% 1 16.09.2027 -
Joseph Arumala Ikorodu City Active 84 / 96 40% 1 15.09.2027 -
Juan Rodríguez Cerro Largo Active 98 / 103 40% 1 15.09.2027 -
Maren Kefas Plateau United Active 93 / 96 40% 1 08.09.2027 -
Yerry Gonzalez Universitario Popayan Active 96 / 90 40% 1 30.08.2027 -
Nahuel Leivas Montevideo City Torque Active 101 / 107 40% 1 30.08.2027 -
Issa Yusuf Shooting Stars Active 86 / 89 40% 1 23.08.2027 -
Alejandro Leiva Patronato Active 99 / 101 40% 1 23.08.2027 -
Eliás Montiel Borussia Dortmund Active 131 / 145 40% 2 16.08.2027 -
Kamaldeen Atiemo Wa All Stars Active 94 / 115 40% 1 16.08.2027 -
Olaniyi Saheed Kwara United Active 93 / 100 40% 1 16.08.2027 -
Facundo Rodríguez Talleres Active 94 / 98 40% 1 03.08.2027 -
Jeff Ekhator Juventus Active 139 / 146 40% 1 03.08.2027 -
Teboho Zwane Ajax Cape Town Active 87 / 94 40% 1 27.07.2027 -
Sabino González Sarmiento Active 88 / 96 40% 1 23.06.2027 -
Felipe Igón Racing Club Active 94 / 98 40% 1 21.06.2027 -
Bradley Barcola Liverpool Active 170 / 163 40% 2 14.06.2027 -
Savinho Tottenham Active 164 / 165 40% 8 14.06.2027 -
Shea Charles Southampton Active 134 / 138 40% 1 14.06.2027 -
Alexei Rojas Fedorushchenko Barrow AFC Active 116 / 116 40% 1 03.06.2027 -
Jeifer Nontoa Banfield Active 81 / 93 40% 1 02.06.2027 -
Matías Zorzoli Newell's Old Boys Active 88 / 96 40% 1 01.06.2027 -
Hugo Ekitiké Liverpool Active 168 / 165 40% 5 31.05.2027 -
Thiago Brentford Active 149 / 151 40% 1 31.05.2027 -
Mohamed-Ali Cho Hull City Active 138 / 140 40% 9 29.05.2027 -
Omar El Hilali Espanyol Active 149 / 152 40% 4 29.05.2027 -
Emanuel Bonda Argentinos Juniors Active 84 / 86 40% 1 28.05.2027 -
Joaquín Sevegnani Colegiales Active 80 / 91 40% 1 28.05.2027 -
David Mella Deportivo La Coruña Active 135 / 128 40% 1 28.05.2027 -
Lorenzo Amatucci Deportivo La Coruña Active 133 / 142 40% 1 28.05.2027 -
Rodrigo Gomes Wolverhampton Active 137 / 144 40% 3 27.05.2027 -
Martim Neto Elche Active 128 / 134 40% 1 26.05.2027 -
Hernán Sanabria Barracas Central Active 83 / 87 40% 1 25.05.2027 -
Ignacio Coscio Huracán Active 88 / 97 40% 1 25.05.2027 -
Martin Baturina Como Active 135 / 146 40% 1 23.05.2027 -
Pedri Barcelona Active 180 / 182 40% 6 21.05.2027 -
Marc Pubill Atlético Madrid Active 144 / 142 40% 4 21.05.2027 -
Raúl Moro Osasuna Active 133 / 138 40% 4 20.05.2027 -
Miloš Kerkez Liverpool Active 155 / 154 40% 3 19.05.2027 -
Izan Merino Málaga Active 117 / 131 40% 2 18.05.2027 -
Juan Manuel Centurión Independiente Active 95 / 95 40% 1 18.05.2027 -
Muhammadyusuf Sobirov Bunyodkor Active 94 / 101 40% 1 16.05.2027 -
Kevin Fulham Active 150 / 143 40% 7 11.05.2027 -
Gonçalo Oliveira Benfica Active 112 / 110 40% 1 11.05.2027 -
Charlie Gray Fleetwood Town Active 94 / 101 40% 1 11.05.2027 -
Brian Gutiérrez Guadalajara Active 127 / 126 40% 4 10.05.2027 -
Jan Bürger Northampton Town Active 107 / 116 40% 1 09.05.2027 -
Ilaix Moriba Celta Active 148 / 156 40% 3 05.05.2027 -
Carlos Álvarez Club America Active 135 / 136 40% 2 05.05.2027 -
Roberto Fernández Braga Lost 146 / 143 40% 10 03.05.2027 -
Gavi Barcelona Active 156 / 166 40% 4 03.05.2027 -
Walter Molina Defensa y Justicia Active 87 / 96 40% 1 03.05.2027 -
Jakub Badžgoň MSK Zilina Active 102 / 111 40% 2 02.05.2027 -
Martín Díaz Lanús Active 84 / 87 40% 1 01.05.2027 -
Franco Capponi Aldosivi Active 93 / 104 40% 1 01.05.2027 -
Amad Manchester United Active 159 / 157 40% 6 29.04.2027 -
Louis Leroux FC Nantes Active 126 / 128 40% 1 29.04.2027 -
Joe Gelhardt Hull City Active 136 / 135 40% 2 27.04.2027 -
Pablo Torre Mallorca Active 153 / 136 40% 5 27.04.2027 -
Pablo Barrios Atlético Madrid Active 166 / 159 40% 1 27.04.2027 -
Hákon Arnar Haraldsson LOSC Lille Active 144 / 150 40% 1 26.04.2027 -
Javi Guerra Valencia Active 147 / 152 40% 2 24.04.2027 -
Federico Bonilla River Plate Active 97 / 94 40% 1 24.04.2027 -
Yusi Alavés Active 127 / 127 40% 2 23.04.2027 -
Diego López Valencia Active 141 / 132 40% 3 21.04.2027 -
Hugo Álvarez Celta Active 142 / 145 40% 4 21.04.2027 -
Fábio Carvalho Brentford Active 136 / 133 40% 1 16.04.2027 -
Fermín Barcelona Rejected 165 / 164 40% 4 11.04.2027 Reject
Miguel Figueiredo Benfica Active 107 / 123 40% 1 09.04.2027 -
James Bacca La Equidad Active 122 / 131 40% 1 09.04.2027 -
Yeremy Pino Crystal Palace Active 147 / 144 40% 5 08.04.2027 -
Emiliano Zacca Deportivo Riestra Active 87 / 104 40% 1 05.04.2027 -
Mario Soriano Deportivo La Coruña Active 129 / 127 40% 1 02.04.2027 -
Georginio Rutter Brighton Active 146 / 145 40% 5 01.04.2027 -
Tino Livramento Newcastle United Active 161 / 161 40% 2 01.04.2027 -
David Larrubia Málaga Active 134 / 133 40% 3 31.03.2027 Monitor
Couhaib Driouech Celta Active 128 / 128 40% 1 29.03.2027 -
Alex Scott Bournemouth Active 150 / 147 40% 2 28.03.2027 -
Carlos Forbs Club Brugge Active 136 / 133 40% 1 22.03.2027 -
Chemsdine Talbi Sunderland Active 143 / 142 40% 3 20.03.2027 -
Lautaro Herrera Estudiantes Active 93 / 99 40% 1 19.03.2027 -
Giovanni Stellato Guidonia Montecelio Active 91 / 89 40% 1 18.03.2027 -
Martín Almeida Montevideo City Torque Active 91 / 103 40% 1 17.03.2027 -
Lucas Wolfert Racing Club Active 85 / 100 40% 1 17.03.2027 -
James Trafford Leeds United Active 147 / 137 40% 4 16.03.2027 -
Samuel Soares Benfica Active 126 / 137 40% 6 14.03.2027 -
Robin Roefs Sunderland Active 146 / 146 40% 8 14.03.2027 -
Leo Román Deportivo La Coruña Active 146 / 147 40% 5 13.03.2027 -
Joseph Leclercq Tottenham Active 149 / 148 40% 5 12.03.2027 -
Gabriel Brazão Santos Active 139 / 136 40% 2 11.03.2027 -
Jonathan Fischer FC Metz Active 129 / 138 40% 2 11.03.2027 -
Deniz Ertaş Konyaspor Active 120 / 132 40% 1 11.03.2027 -
Lazar Carević Famalicao Active 133 / 133 40% 3 07.03.2027 -
Mads Hermansen West Ham United Active 136 / 136 40% 4 06.03.2027 -
Mile Svilar AS Roma Active 156 / 156 40% 3 05.03.2027 -
Anthony Patterson Wrexham Active 137 / 129 40% 3 03.03.2027 -
Grégoire Coudert Burnley Active 125 / 132 40% 3 01.03.2027 -
Zion Suzuki Aston Villa Active 147 / 138 40% 2 28.02.2027 -
Senne Lammens Manchester United Active 151 / 159 40% 2 25.02.2027 -
Berke Özer LOSC Lille Active 132 / 142 40% 1 21.02.2027 -
Jonmi Magunagoitia Eibar Active 129 / 128 40% 2 19.02.2027 -
Jude Bellingham Real Madrid Active 178 / 171 40% 2 19.02.2027 -
Ryan Gravenberch Liverpool Active 160 / 167 40% 1 19.02.2027 -
Yehvann Diouf OGC Nice Active 146 / 145 40% 1 14.02.2027 -
Radek Vítek Middlesbrough Active 132 / 139 40% 1 13.02.2027 -
Elia Caprile Cagliari Active 139 / 137 40% 1 08.02.2027 -
Patrick Sequeira Casa Pia Active 123 / 118 40% 2 07.02.2027 -
Sergi Cardona KAA Gent Active 145 / 142 40% 1 12.01.2027 -
Dani Cárdenas Sevilla Active 126 / 124 40% 1 11.01.2027 -
Rodrygo Real Madrid Active 169 / 168 40% 3 09.01.2027 -
Brahim Díaz Real Madrid Active 148 / 156 40% 1 09.01.2027 -
Cody Gakpo Liverpool Active 158 / 164 40% 2 07.01.2027 -
Gabriel Martinelli Arsenal Active 158 / 154 40% 7 04.01.2027 -
Álex Baena Atlético Madrid Active 159 / 152 40% 1 04.01.2027 -
Jonathan Dubasin Osasuna Active 145 / 141 40% 4 02.01.2027 -
Justo Giani Umraniyespor Active 130 / 122 40% 2 02.01.2027 -
Dani Olmo Barcelona Active 168 / 153 40% 2 31.12.2026 -
Georges Mikautadze Villarreal Active 153 / 141 40% 1 31.12.2026 -
Pau Víctor Braga Active 142 / 143 40% 5 30.12.2026 -
Matheus Cunha Manchester United Active 163 / 153 40% 6 30.12.2026 -
Javi Puado Espanyol Active 146 / 149 40% 3 28.12.2026 -
Alexis Vega Feyenoord Active 146 / 147 40% 6 27.12.2026 -
João Pedro Chelsea Active 157 / 147 40% 4 23.12.2026 -
Federico Chiesa Liverpool Active 161 / 153 40% 5 23.12.2026 -
Antoine Semenyo Manchester City Active 157 / 162 40% 6 22.12.2026 -
Rodrigo Muniz Fulham Active 133 / 139 40% 1 21.12.2026 -
Ademola Lookman Atlético Madrid Active 155 / 149 40% 5 20.12.2026 -
Rayan Cherki Manchester City Active 164 / 167 40% 10 16.12.2026 -
Aurélien Tchouaméni Real Madrid Active 175 / 170 40% 3 15.12.2026 -
Arnau Martínez Valencia Active 138 / 149 40% 1 15.12.2026 -
Ferran Torres Paris Saint-Germain Active 164 / 166 40% 3 14.12.2026 -
Jeremie Frimpong Liverpool Active 166 / 151 40% 3 13.12.2026 -
Fran García Betis Active 142 / 155 40% 1 13.12.2026 -
Ousmane Dembélé Paris Saint-Germain Active 180 / 184 40% 2 08.12.2026 -
Boubacar Kamara Aston Villa Active 167 / 171 40% 4 05.12.2026 -
Kike Salas Sevilla Active 147 / 148 40% 1 05.12.2026 -
Jorge De Frutos Rayo Vallecano Active 141 / 141 40% 1 02.12.2026 -
Iliman N'Diaye Everton Active 156 / 155 40% 3 01.12.2026 -
Jan Paul van Hecke Tottenham Active 159 / 153 40% 1 01.12.2026 -
Johnny Cardoso Atlético Madrid Active 151 / 145 40% 1 01.12.2026 -
Ismaïla Sarr Crystal Palace Active 155 / 145 40% 2 27.11.2026 -
Jarrod Bowen West Ham United Active 153 / 152 40% 1 27.11.2026 -
Borja Mayoral Getafe Active 141 / 143 40% 2 24.11.2026 Needs More Info
Alexander Sørloth Atlético Madrid Active 157 / 147 40% 1 17.11.2026 -
Eduardo Camavinga Real Madrid Active 162 / 172 40% 1 12.11.2026 -
Alexis Mac Allister Liverpool Active 159 / 168 40% 2 09.11.2026 -
Sven Botman Newcastle United Active 160 / 155 40% 1 09.11.2026 -
Isaac Romero Sevilla Active 143 / 137 40% 3 06.11.2026 -
Ramón Terrats Getafe Active 142 / 134 40% 1 06.11.2026 -
Florentino Luís Ipswich Town Active 147 / 146 40% 3 02.11.2026 -
William Saliba Arsenal Active 173 / 179 40% 1 02.11.2026 -
Lucien Agoumé Sevilla Active 143 / 152 40% 3 31.10.2026 -
Maxence Lacroix Chelsea Active 154 / 149 40% 1 31.10.2026 -
Fran Beltrán Girona Active 145 / 137 40% 1 31.10.2026 -
Christantus Uche Getafe Active 137 / 138 40% 1 28.10.2026 Needs More Info
Bryan Mbeumo Manchester United Active 154 / 153 40% 1 28.10.2026 -
Nicolas Jackson Aston Villa Active 144 / 153 40% 1 26.10.2026 -
Jurriën Timber Arsenal Active 163 / 153 40% 2 25.10.2026 -
Vitinha Paris Saint-Germain Active 183 / 183 40% 2 23.10.2026 -
Adam Wharton Crystal Palace Active 145 / 147 40% 1 23.10.2026 -
Marc Guéhi Manchester City Active 171 / 165 40% 1 23.10.2026 -
Jarrad Branthwaite Everton Active 151 / 154 40% 2 22.10.2026 -
Ryan Sessegnon Fulham Active 139 / 136 40% 1 22.10.2026 -
Ramiro Ruiz Rodríguez Atlético Tucumán Active 116 / 116 40% 1 21.10.2026 -
Ruyery Blanco Alianza Petrolera Active 106 / 112 40% 1 20.10.2026 -
Troy Parrott Betis Active 133 / 136 40% 1 18.10.2026 -
Alexis Cuello San Lorenzo Active 128 / 127 40% 3 15.10.2026 -
Amadou Onana Aston Villa Active 159 / 156 40% 1 12.10.2026 -
Lewis Hall Newcastle United Active 140 / 152 40% 1 12.10.2026 -
Enzo Fernández Manchester City Active 163 / 162 40% 2 04.10.2026 -
Ignacio Perruzzi San Lorenzo Active 124 / 129 40% 1 04.10.2026 -
Carlos Romero Villarreal Active 140 / 139 40% 2 03.10.2026 -
Cristian Uribe Monaco Active 147 / 142 40% 2 03.10.2026 -
Dominik Szoboszlai Liverpool Active 169 / 160 40% 2 01.10.2026 -
Wesley Fofana Chelsea Active 161 / 153 40% 1 30.09.2026 -
Ibrahima Konaté Real Madrid Active 154 / 148 40% 2 28.09.2026 -
Aaron Hickey Brentford Active 142 / 137 40% 1 21.09.2026 -
Alexander Díaz Deportivo Riestra Active 120 / 109 40% 3 20.09.2026 -
Juan Rocca Gimnasia y Tiro Active 107 / 99 40% 1 17.09.2026 -
Alejandro Piedrahita Deportivo Pereira Active 127 / 131 40% 2 16.09.2026 -
Wessam Abou Ali Columbus Crew Active 130 / 123 40% 1 16.09.2026 -
Favio Cabral Mitre Active 120 / 124 40% 1 16.09.2026 -
Yoshan Valois Lanús Active 117 / 118 40% 1 14.09.2026 -
Misael Sosa Godoy Cruz Active 109 / 123 40% 1 12.09.2026 -
Luciano Cosentino Wanderers Active 123 / 122 40% 1 11.09.2026 -
Matthijs de Ligt Manchester United Active 155 / 156 40% 1 10.09.2026 -
Ignacio Russo Tigre Active 119 / 130 40% 1 08.09.2026 -
Morgan Rogers Chelsea Active 161 / 155 40% 1 02.08.2026 -
Viktor Gyökeres Arsenal Active 146 / 149 40% 1 02.08.2026 -